Time;durP1;ratioP1;P1;durP2;ratioP2;P2;SDS_P1;SDS_P2;PMS_P1;PMS_P2;Temp;Humidity;BMP_temperature;BMP_pressure;BME280_temperature;BME280_humidity;BME280_pressure;Samples;Min_cycle;Max_cycle;Signal;HPM_P1;HPM_P2
2023/04/08 00:01:15;;;;;;;14.57;8.07;;;;;;;5.23;100.00;99505.06;5066786;28;20210;-79
2023/04/08 00:03:43;;;;;;;10.87;7.47;;;;;;;5.26;100.00;99502.31;5072108;28;20246;-78
2023/04/08 00:06:11;;;;;;;58.40;10.00;;;;;;;5.28;100.00;99503.13;5068027;28;20219;-78
2023/04/08 00:08:40;;;;;;;15.47;7.50;;;;;;;5.15;100.00;99509.75;5069683;28;20258;-78
2023/04/08 00:11:08;;;;;;;30.93;8.40;;;;;;;5.12;100.00;99502.84;5073358;28;20188;-78
2023/04/08 00:13:37;;;;;;;39.67;8.50;;;;;;;4.97;100.00;99498.13;5068886;28;20204;-78
2023/04/08 00:16:05;;;;;;;48.77;9.40;;;;;;;5.02;100.00;99501.47;5063334;28;20193;-79
2023/04/08 00:18:36;;;;;;;88.90;10.67;;;;;;;4.92;100.00;99502.69;5035438;28;20238;-78
2023/04/08 00:21:05;;;;;;;85.07;10.97;;;;;;;4.75;100.00;99508.53;5073267;28;20197;-78
2023/04/08 00:23:33;;;;;;;32.53;7.60;;;;;;;4.76;100.00;99512.03;5067054;28;20222;-78
2023/04/08 00:26:02;;;;;;;40.93;8.40;;;;;;;4.66;100.00;99506.22;5066482;28;20254;-78
2023/04/08 00:28:32;;;;;;;90.70;11.20;;;;;;;4.59;100.00;99509.97;5072707;28;20650;-78
2023/04/08 00:31:01;;;;;;;31.27;7.90;;;;;;;4.65;100.00;99512.38;5072964;28;20273;-78
2023/04/08 00:33:30;;;;;;;41.87;7.90;;;;;;;4.62;100.00;99509.84;5068578;28;20281;-78
2023/04/08 00:35:59;;;;;;;66.53;9.10;;;;;;;4.53;100.00;99510.16;5066867;28;20254;-78
2023/04/08 00:38:28;;;;;;;55.47;9.77;;;;;;;4.32;100.00;99509.97;5065915;28;20254;-78
2023/04/08 00:40:57;;;;;;;20.43;6.90;;;;;;;4.50;100.00;99510.28;5069660;28;20276;-78
2023/04/08 00:43:26;;;;;;;53.70;9.30;;;;;;;4.52;100.00;99511.06;5067745;28;20199;-78
2023/04/08 00:45:56;;;;;;;17.90;6.80;;;;;;;4.44;100.00;99508.72;5067114;28;20220;-78
2023/04/08 00:48:24;;;;;;;18.73;7.33;;;;;;;4.47;100.00;99505.16;5064208;28;20212;-78
2023/04/08 00:50:54;;;;;;;19.37;6.63;;;;;;;4.48;100.00;99517.34;5068387;28;20701;-78
2023/04/08 00:53:24;;;;;;;23.37;6.67;;;;;;;4.45;100.00;99522.69;5072668;28;20192;-78
2023/04/08 00:55:53;;;;;;;53.60;8.37;;;;;;;4.39;100.00;99522.91;5063838;28;20232;-78
2023/04/08 00:58:21;;;;;;;45.87;7.87;;;;;;;4.30;100.00;99516.19;5068448;28;20249;-78
2023/04/08 01:00:56;;;;;;;47.50;7.83;;;;;;;4.28;100.00;99521.47;5065531;28;20204;-78
2023/04/08 01:03:36;;;;;;;44.30;7.93;;;;;;;4.23;100.00;99523.38;5068634;28;20231;-78
2023/04/08 01:06:13;;;;;;;42.97;8.07;;;;;;;4.11;100.00;99521.16;5071008;28;20303;-78
2023/04/08 01:08:43;;;;;;;37.60;7.30;;;;;;;4.05;100.00;99529.22;5065676;28;20200;-78
2023/04/08 01:11:14;;;;;;;54.00;7.90;;;;;;;3.91;100.00;99513.94;5072478;28;20201;-78
2023/04/08 01:13:45;;;;;;;38.57;7.00;;;;;;;3.92;100.00;99517.41;5070446;28;20321;-78
2023/04/08 01:16:15;;;;;;;30.93;7.97;;;;;;;3.94;100.00;99529.53;5064939;28;20199;-78
2023/04/08 01:18:46;;;;;;;16.83;6.40;;;;;;;3.88;100.00;99521.03;5068470;28;20204;-78
2023/04/08 01:21:16;;;;;;;17.07;6.50;;;;;;;3.94;100.00;99519.06;5064082;28;20710;-79
2023/04/08 01:23:58;;;;;;;37.53;7.43;;;;;;;3.82;100.00;99529.94;5072357;28;20196;-79
2023/04/08 01:26:29;;;;;;;27.07;6.37;;;;;;;3.77;100.00;99528.38;5072136;28;20265;-78
2023/04/08 01:29:00;;;;;;;22.30;6.47;;;;;;;3.65;100.00;99516.47;5071080;28;20196;-79
2023/04/08 01:31:30;;;;;;;15.20;6.00;;;;;;;3.79;100.00;99521.31;5073271;28;20208;-79
2023/04/08 01:34:01;;;;;;;21.73;6.23;;;;;;;3.71;100.00;99524.16;5072432;28;20205;-78
2023/04/08 01:36:32;;;;;;;24.03;5.57;;;;;;;3.65;100.00;99525.19;5075955;28;20192;-79
2023/04/08 01:39:01;;;;;;;11.30;5.80;;;;;;;3.76;100.00;99526.63;5075995;28;20258;-78
2023/04/08 01:41:31;;;;;;;30.80;6.93;;;;;;;3.62;100.00;99527.91;5076032;28;20200;-78
2023/04/08 01:44:00;;;;;;;16.53;5.63;;;;;;;3.65;100.00;99526.97;5067454;28;20200;-78
2023/04/08 01:46:30;;;;;;;27.50;6.80;;;;;;;3.80;100.00;99523.88;5071359;28;20224;-78
2023/04/08 01:48:59;;;;;;;33.53;6.80;;;;;;;3.63;100.00;99513.91;5071774;28;20204;-78
2023/04/08 01:51:31;;;;;;;16.40;5.80;;;;;;;3.61;100.00;99520.13;5075937;28;20270;-79
2023/04/08 01:53:59;;;;;;;29.33;6.40;;;;;;;3.49;100.00;99523.09;5075862;28;20204;-79
2023/04/08 01:56:33;;;;;;;19.27;6.30;;;;;;;3.53;100.00;99520.34;5071292;28;20192;-78
2023/04/08 01:59:08;;;;;;;22.47;6.33;;;;;;;3.49;100.00;99529.19;5075835;28;20200;-78
2023/04/08 02:01:37;;;;;;;37.97;7.30;;;;;;;3.51;100.00;99523.91;5075196;28;20274;-78
2023/04/08 02:04:11;;;;;;;37.87;7.47;;;;;;;3.50;100.00;99528.28;5064702;28;20254;-79
2023/04/08 02:06:40;;;;;;;44.63;7.13;;;;;;;3.51;100.00;99523.91;5075382;28;20224;-79
2023/04/08 02:09:08;;;;;;;34.40;6.97;;;;;;;3.49;100.00;99531.81;5075282;28;20242;-79
2023/04/08 02:11:38;;;;;;;45.17;7.37;;;;;;;3.36;100.00;99527.81;5067485;28;20211;-79
2023/04/08 02:14:06;;;;;;;20.07;6.00;;;;;;;3.40;100.00;99534.69;5072415;28;20215;-78
2023/04/08 02:16:42;;;;;;;23.90;5.70;;;;;;;3.49;100.00;99531.81;5072262;28;20552;-79
2023/04/08 02:19:17;;;;;;;14.90;5.73;;;;;;;3.49;100.00;99534.44;5071451;28;20231;-79
2023/04/08 02:21:49;;;;;;;7.63;4.90;;;;;;;3.43;100.00;99537.22;5067401;28;20257;-79
2023/04/08 02:24:18;;;;;;;7.93;5.17;;;;;;;3.43;100.00;99534.59;5069778;28;20251;-79
2023/04/08 02:26:50;;;;;;;5.60;4.73;;;;;;;3.37;100.00;99535.63;5037862;28;20288;-79
2023/04/08 02:29:19;;;;;;;10.53;5.27;;;;;;;3.40;100.00;99542.56;5070225;28;20200;-79
2023/04/08 02:31:49;;;;;;;8.53;4.90;;;;;;;3.32;100.00;99540.16;5067633;28;20200;-79
2023/04/08 02:34:18;;;;;;;20.57;5.90;;;;;;;3.37;100.00;99543.47;5071204;28;20220;-79
2023/04/08 02:36:47;;;;;;;10.23;5.00;;;;;;;3.25;100.00;99543.81;5074957;28;20712;-79
2023/04/08 02:39:16;;;;;;;15.33;5.27;;;;;;;3.33;100.00;99548.84;5068338;28;20683;-79
2023/04/08 02:41:46;;;;;;;14.73;4.97;;;;;;;3.27;100.00;99547.25;5071569;28;20250;-79
2023/04/08 02:44:17;;;;;;;42.97;6.53;;;;;;;3.14;100.00;99543.28;5068202;28;20250;-79
2023/04/08 02:46:45;;;;;;;22.40;6.00;;;;;;;3.23;100.00;99544.78;5068310;28;20216;-79
2023/04/08 02:49:13;;;;;;;35.47;6.30;;;;;;;3.16;100.00;99549.31;5069018;28;20235;-79
2023/04/08 02:51:41;;;;;;;43.70;7.10;;;;;;;3.06;100.00;99555.72;5072021;28;20200;-79
2023/04/08 02:54:11;;;;;;;33.10;6.20;;;;;;;2.98;100.00;99549.81;5065140;28;20208;-79
2023/04/08 02:56:40;;;;;;;9.43;4.40;;;;;;;3.02;100.00;99554.94;5071873;28;20200;-79
2023/04/08 02:59:08;;;;;;;17.47;5.40;;;;;;;2.95;100.00;99553.38;5009952;28;20198;-79
2023/04/08 03:01:38;;;;;;;10.63;4.93;;;;;;;2.96;100.00;99552.47;5010137;28;20701;-79
2023/04/08 03:04:07;;;;;;;25.10;5.30;;;;;;;2.96;100.00;99549.00;5008873;28;20203;-78
2023/04/08 03:06:35;;;;;;;8.63;4.20;;;;;;;2.91;100.00;99557.00;5010001;28;20218;-79
2023/04/08 03:09:04;;;;;;;5.30;3.80;;;;;;;2.91;100.00;99556.13;5008443;28;20194;-79
2023/04/08 03:11:34;;;;;;;42.50;5.83;;;;;;;2.76;100.00;99558.25;5010008;28;20440;-79
2023/04/08 03:14:03;;;;;;;35.50;5.33;;;;;;;2.61;100.00;99558.66;5012392;28;20250;-79
2023/04/08 03:16:31;;;;;;;9.57;4.13;;;;;;;2.54;100.00;99550.09;5017294;28;20197;-79
2023/04/08 03:19:01;;;;;;;7.00;4.50;;;;;;;2.52;100.00;99553.66;5064919;28;20204;-79
2023/04/08 03:21:30;;;;;;;7.43;4.43;;;;;;;2.69;100.00;99551.44;5064036;28;20184;-79
2023/04/08 03:23:59;;;;;;;8.93;5.70;;;;;;;2.70;100.00;99550.56;5065821;28;20201;-79
2023/04/08 03:26:28;;;;;;;6.90;5.90;;;;;;;2.67;100.00;99557.63;5063953;28;20204;-79
2023/04/08 03:28:56;;;;;;;7.67;6.13;;;;;;;2.87;100.00;99557.97;5070411;28;20258;-79
2023/04/08 03:31:26;;;;;;;8.60;6.77;;;;;;;2.99;100.00;99565.50;5068644;28;20196;-79
2023/04/08 03:33:54;;;;;;;10.17;7.07;;;;;;;3.02;100.00;99568.03;5063548;28;20196;-79
2023/04/08 03:36:25;;;;;;;6.73;5.60;;;;;;;3.14;100.00;99566.81;5073725;28;20705;-79
2023/04/08 03:38:55;;;;;;;6.37;5.67;;;;;;;3.06;100.00;99560.94;5070997;28;20250;-79
2023/04/08 03:41:23;;;;;;;7.17;6.03;;;;;;;2.84;100.00;99573.75;5068550;28;20250;-79
2023/04/08 03:43:51;;;;;;;7.23;6.47;;;;;;;2.64;100.00;99562.94;5073838;28;20227;-79
2023/04/08 03:46:21;;;;;;;7.23;6.27;;;;;;;2.84;100.00;99581.59;5071082;28;20203;-79
2023/04/08 03:48:49;;;;;;;8.30;5.13;;;;;;;2.87;100.00;99576.25;5066909;28;20216;-79
2023/04/08 03:51:18;;;;;;;13.50;5.90;;;;;;;2.70;100.00;99570.59;5070355;28;20204;-78
2023/04/08 03:53:48;;;;;;;5.60;4.97;;;;;;;2.65;100.00;99562.88;5064145;28;20200;-79
2023/04/08 03:56:16;;;;;;;7.67;5.20;;;;;;;2.65;100.00;99564.66;5065107;28;20208;-79
2023/04/08 03:58:44;;;;;;;13.83;5.43;;;;;;;2.62;100.00;99560.38;5067840;28;20250;-79
2023/04/08 04:01:16;;;;;;;7.57;4.77;;;;;;;2.63;100.00;99561.22;5062950;28;20200;-79
2023/04/08 04:03:45;;;;;;;6.33;5.10;;;;;;;2.70;100.00;99568.00;5047683;28;20205;-79
2023/04/08 04:06:14;;;;;;;6.57;5.03;;;;;;;2.63;100.00;99564.69;5047857;28;20263;-79
2023/04/08 04:08:42;;;;;;;6.70;5.27;;;;;;;2.77;100.00;99572.16;5053133;28;20217;-79
2023/04/08 04:11:12;;;;;;;5.83;5.13;;;;;;;2.73;100.00;99570.53;5050175;28;20201;-79
2023/04/08 04:13:41;;;;;;;6.13;5.37;;;;;;;2.65;100.00;99562.03;5051882;28;20707;-79
2023/04/08 04:16:09;;;;;;;6.03;5.40;;;;;;;2.70;100.00;99566.25;5053471;28;20780;-79
2023/04/08 04:18:38;;;;;;;5.63;4.87;;;;;;;2.69;100.00;99571.50;5055800;28;20231;-80
2023/04/08 04:21:06;;;;;;;6.70;5.53;;;;;;;2.81;100.00;99568.59;5058087;28;20197;-80
2023/04/08 04:23:35;;;;;;;6.87;5.20;;;;;;;2.78;100.00;99573.88;5060825;28;20194;-79
2023/04/08 04:26:08;;;;;;;11.37;5.93;;;;;;;2.69;100.00;99568.88;5047905;28;20193;-79
2023/04/08 04:28:38;;;;;;;7.00;5.20;;;;;;;2.76;100.00;99570.47;5054732;28;20743;-78
2023/04/08 04:31:06;;;;;;;6.43;5.63;;;;;;;2.74;100.00;99569.66;5048084;28;20250;-79
2023/04/08 04:33:34;;;;;;;8.10;6.03;;;;;;;2.82;100.00;99575.53;5049299;28;20255;-79
2023/04/08 04:36:03;;;;;;;7.97;5.80;;;;;;;2.96;100.00;99575.16;5049809;28;20251;-79
2023/04/08 04:38:31;;;;;;;8.53;6.73;;;;;;;3.07;100.00;99573.97;5049197;28;20197;-79
2023/04/08 04:41:00;;;;;;;10.10;6.60;;;;;;;2.85;100.00;99575.44;5049907;28;20208;-79
2023/04/08 04:43:28;;;;;;;9.33;6.10;;;;;;;3.11;100.00;99587.84;5052773;28;20204;-79
2023/04/08 04:45:59;;;;;;;8.73;6.87;;;;;;;3.17;100.00;99582.44;5052675;28;20193;-79
2023/04/08 04:48:28;;;;;;;8.50;6.17;;;;;;;3.22;100.00;99583.19;5047882;28;20300;-79
2023/04/08 04:50:57;;;;;;;7.53;6.10;;;;;;;3.23;100.00;99577.06;5048613;28;20227;-79
2023/04/08 04:53:25;;;;;;;6.40;5.70;;;;;;;3.08;100.00;99583.53;5049881;28;20193;-79
2023/04/08 04:55:54;;;;;;;5.90;5.10;;;;;;;3.10;100.00;99581.78;5051120;28;20201;-79
2023/04/08 04:58:22;;;;;;;6.33;5.47;;;;;;;2.99;100.00;99573.34;5049832;28;20189;-79
2023/04/08 05:00:50;;;;;;;5.70;4.93;;;;;;;2.96;100.00;99576.03;5048204;28;20192;-79
2023/04/08 05:03:20;;;;;;;6.27;5.40;;;;;;;2.97;100.00;99577.75;5067398;28;20300;-79
2023/04/08 05:05:52;;;;;;;6.20;5.40;;;;;;;3.02;100.00;99586.34;5072486;28;20204;-78
2023/04/08 05:08:20;;;;;;;8.20;5.77;;;;;;;3.20;100.00;99592.00;5072568;28;20220;-79
2023/04/08 05:10:50;;;;;;;6.73;5.70;;;;;;;3.08;100.00;99588.78;5068217;28;20196;-79
2023/04/08 05:13:19;;;;;;;6.37;5.30;;;;;;;3.14;100.00;99586.00;5065075;28;20246;-79
2023/04/08 05:15:49;;;;;;;7.80;5.70;;;;;;;3.05;100.00;99588.88;5069112;28;20208;-79
2023/04/08 05:18:17;;;;;;;6.47;5.30;;;;;;;3.28;100.00;99577.78;5064687;28;20196;-79
2023/04/08 05:20:47;;;;;;;7.30;5.43;;;;;;;3.19;100.00;99587.66;5069671;28;20204;-78
2023/04/08 05:23:15;;;;;;;6.87;5.53;;;;;;;3.18;100.00;99584.16;5072190;28;20648;-79
2023/04/08 05:25:44;;;;;;;6.97;5.83;;;;;;;3.20;100.00;99590.22;5063435;28;20275;-79
2023/04/08 05:28:12;;;;;;;6.93;5.57;;;;;;;3.25;100.00;99592.72;5072184;28;20306;-79
2023/04/08 05:30:40;;;;;;;6.50;5.70;;;;;;;3.30;100.00;99583.84;5065560;28;20204;-79
2023/04/08 05:33:09;;;;;;;6.93;5.80;;;;;;;3.27;100.00;99594.38;5061671;28;20269;-79
2023/04/08 05:35:40;;;;;;;6.20;5.13;;;;;;;3.33;100.00;99601.22;5066668;28;20261;-79
2023/04/08 05:38:10;;;;;;;5.77;5.07;;;;;;;3.33;100.00;99586.38;5072302;28;20243;-79
2023/04/08 05:40:38;;;;;;;5.97;5.30;;;;;;;3.38;100.00;99599.34;5068261;28;20197;-79
2023/04/08 05:43:06;;;;;;;6.73;5.37;;;;;;;3.20;100.00;99602.47;5065438;28;20196;-78
2023/04/08 05:45:35;;;;;;;5.93;4.93;;;;;;;3.29;100.00;99594.34;5066030;28;20189;-79
2023/04/08 05:48:03;;;;;;;6.23;4.83;;;;;;;3.19;100.00;99601.59;5066820;28;20224;-79
2023/04/08 05:50:31;;;;;;;6.33;5.17;;;;;;;3.27;100.00;99599.59;5072499;28;20192;-79
2023/04/08 05:53:00;;;;;;;8.07;5.07;;;;;;;3.31;100.00;99601.25;5068924;28;20218;-79
2023/04/08 05:55:30;;;;;;;6.80;5.33;;;;;;;3.33;100.00;99606.44;5069235;28;20266;-79
2023/04/08 05:57:58;;;;;;;6.63;5.30;;;;;;;3.36;100.00;99601.13;5034704;28;20246;-79
2023/04/08 06:00:27;;;;;;;10.23;5.80;;;;;;;3.45;100.00;99613.97;5064478;28;20193;-79
2023/04/08 06:02:55;;;;;;;7.30;5.93;;;;;;;3.44;100.00;99604.38;5066491;28;20228;-79
2023/04/08 06:05:24;;;;;;;6.97;6.00;;;;;;;3.39;100.00;99611.53;5068089;28;20200;-79
2023/04/08 06:07:52;;;;;;;6.53;5.83;;;;;;;3.50;100.00;99608.59;5068812;28;20196;-79
2023/04/08 06:10:21;;;;;;;8.93;7.10;;;;;;;3.60;100.00;99610.91;5066164;28;20196;-79
2023/04/08 06:12:51;;;;;;;8.00;7.17;;;;;;;3.43;100.00;99623.63;5063171;28;20265;-79
2023/04/08 06:15:20;;;;;;;8.20;6.60;;;;;;;3.57;100.00;99620.59;5072616;28;20192;-79
2023/04/08 06:17:48;;;;;;;10.33;7.27;;;;;;;3.46;100.00;99628.75;5068050;28;20201;-79
2023/04/08 06:20:16;;;;;;;9.27;6.90;;;;;;;3.47;100.00;99634.84;5067456;28;20250;-79
2023/04/08 06:22:45;;;;;;;13.10;9.80;;;;;;;3.64;100.00;99641.34;5071418;28;20200;-79
2023/04/08 06:25:13;;;;;;;19.57;14.27;;;;;;;3.68;100.00;99652.63;5075266;28;20196;-79
2023/04/08 06:27:41;;;;;;;13.73;11.10;;;;;;;3.86;100.00;99648.59;5075237;28;20204;-79
2023/04/08 06:30:12;;;;;;;12.20;10.90;;;;;;;4.01;100.00;99659.50;5071351;28;20235;-79
2023/04/08 06:32:40;;;;;;;12.57;11.00;;;;;;;4.08;100.00;99661.94;5071980;28;20204;-79
2023/04/08 06:35:09;;;;;;;11.13;8.43;;;;;;;4.20;100.00;99666.81;5073932;28;20640;-79
2023/04/08 06:37:38;;;;;;;10.00;8.07;;;;;;;4.25;100.00;99672.81;5070988;28;20200;-79
2023/04/08 06:40:08;;;;;;;10.60;8.33;;;;;;;4.29;100.00;99671.78;5074883;28;20193;-78
2023/04/08 06:42:37;;;;;;;12.40;9.30;;;;;;;4.32;100.00;99663.81;5074938;28;20200;-78
2023/04/08 06:45:06;;;;;;;10.80;7.93;;;;;;;4.43;100.00;99664.34;5066494;28;20269;-79
2023/04/08 06:47:36;;;;;;;10.87;8.70;;;;;;;4.45;100.00;99661.69;5021023;28;20346;-78
2023/04/08 06:50:05;;;;;;;10.07;8.13;;;;;;;4.43;100.00;99672.22;5073396;28;20222;-79
2023/04/08 06:52:34;;;;;;;10.23;7.77;;;;;;;4.48;100.00;99670.31;5029648;28;20198;-78
2023/04/08 06:55:02;;;;;;;11.70;8.60;;;;;;;4.60;100.00;99667.31;5032562;28;20250;-79
2023/04/08 06:57:31;;;;;;;11.23;9.10;;;;;;;4.64;100.00;99673.34;5047844;28;20204;-78
2023/04/08 07:00:01;;;;;;;11.10;9.00;;;;;;;4.62;100.00;99669.88;5032788;28;20197;-79
2023/04/08 07:02:30;;;;;;;11.10;8.47;;;;;;;4.52;100.00;99677.19;5026098;28;20229;-79
2023/04/08 07:05:00;;;;;;;9.13;7.33;;;;;;;4.60;100.00;99680.44;5028098;28;20205;-78
2023/04/08 07:07:29;;;;;;;11.10;8.77;;;;;;;4.60;100.00;99677.81;5027036;28;20244;-79
2023/04/08 07:09:57;;;;;;;9.83;8.07;;;;;;;4.63;100.00;99689.94;4973186;28;20227;-78
2023/04/08 07:12:27;;;;;;;10.13;8.80;;;;;;;4.82;100.00;99695.47;4968551;28;20208;-79
2023/04/08 07:14:55;;;;;;;11.13;8.77;;;;;;;4.80;100.00;99690.28;4967511;28;20214;-79
2023/04/08 07:17:23;;;;;;;11.60;9.07;;;;;;;4.82;100.00;99693.72;4992964;28;20276;-79
2023/04/08 07:19:52;;;;;;;12.30;8.73;;;;;;;4.91;100.00;99696.97;5011086;28;20195;-79
2023/04/08 07:22:22;;;;;;;12.87;9.90;;;;;;;5.06;100.00;99699.94;5008182;28;20620;-78
2023/04/08 07:24:50;;;;;;;14.30;10.33;;;;;;;5.15;100.00;99696.16;4975213;28;20247;-79
2023/04/08 07:27:19;;;;;;;13.83;10.40;;;;;;;5.24;100.00;99701.13;4973231;28;20199;-79
2023/04/08 07:29:53;;;;;;;12.33;10.50;;;;;;;5.29;100.00;99706.19;4970105;28;20223;-80
2023/04/08 07:32:22;;;;;;;12.00;9.73;;;;;;;5.32;100.00;99701.72;4967889;28;20200;-80
2023/04/08 07:34:53;;;;;;;11.77;9.87;;;;;;;5.26;100.00;99712.41;4993620;28;20206;-79
2023/04/08 07:37:25;;;;;;;10.67;9.57;;;;;;;5.28;100.00;99710.59;5010932;28;20191;-79
2023/04/08 07:39:53;;;;;;;12.77;9.67;;;;;;;5.39;100.00;99705.84;4972895;28;20210;-79
2023/04/08 07:42:21;;;;;;;13.10;9.73;;;;;;;5.35;100.00;99706.84;5017791;28;20192;-79
2023/04/08 07:44:51;;;;;;;12.97;10.80;;;;;;;5.28;100.00;99717.63;5069162;28;20201;-79
2023/04/08 07:47:19;;;;;;;12.53;10.63;;;;;;;5.37;100.00;99719.94;5073726;28;20592;-79
2023/04/08 07:49:48;;;;;;;11.60;9.80;;;;;;;5.37;100.00;99712.06;5068369;28;20216;-79
2023/04/08 07:52:16;;;;;;;12.43;10.53;;;;;;;5.56;100.00;99720.16;5066788;28;20279;-79
2023/04/08 07:54:46;;;;;;;13.73;10.60;;;;;;;5.52;100.00;99714.16;5065111;28;20253;-79
2023/04/08 07:57:15;;;;;;;14.50;11.00;;;;;;;5.47;100.00;99718.72;5072894;28;20235;-79
2023/04/08 07:59:44;;;;;;;13.60;11.37;;;;;;;5.71;100.00;99724.91;5073668;28;20243;-78
2023/04/08 08:02:12;;;;;;;13.60;11.20;;;;;;;5.78;100.00;99725.53;5073341;28;20306;-78
2023/04/08 08:04:41;;;;;;;13.80;11.00;;;;;;;5.67;100.00;99726.75;5062653;28;20200;-78
2023/04/08 08:07:10;;;;;;;12.93;10.47;;;;;;;5.75;100.00;99734.38;5070363;28;20267;-79
2023/04/08 08:09:38;;;;;;;15.43;10.60;;;;;;;5.88;100.00;99737.44;5070205;28;20220;-78
2023/04/08 08:12:08;;;;;;;16.27;12.37;;;;;;;5.79;100.00;99738.63;5069504;28;20246;-78
2023/04/08 08:14:36;;;;;;;13.93;11.90;;;;;;;5.73;100.00;99739.69;5073103;28;20199;-78
2023/04/08 08:17:04;;;;;;;17.80;13.67;;;;;;;5.60;100.00;99738.41;5072829;28;20196;-78
2023/04/08 08:19:32;;;;;;;14.93;12.43;;;;;;;5.79;100.00;99745.63;5070229;28;20204;-78
2023/04/08 08:22:00;;;;;;;15.47;13.03;;;;;;;5.82;100.00;99746.41;5069400;28;20200;-79
2023/04/08 08:24:28;;;;;;;17.77;13.57;;;;;;;5.83;100.00;99748.13;5064018;28;20210;-78
2023/04/08 08:26:57;;;;;;;15.70;12.93;;;;;;;5.81;100.00;99751.72;5072833;28;20200;-78
2023/04/08 08:29:26;;;;;;;16.47;13.03;;;;;;;6.02;100.00;99756.25;5072851;28;20220;-79
2023/04/08 08:31:56;;;;;;;17.23;12.60;;;;;;;6.00;100.00;99761.56;5070048;28;20253;-79
2023/04/08 08:34:27;;;;;;;16.57;12.83;;;;;;;6.03;100.00;99757.97;5064075;28;20257;-78
2023/04/08 08:36:55;;;;;;;16.57;14.27;;;;;;;6.17;100.00;99758.31;5064502;28;20196;-78
2023/04/08 08:39:24;;;;;;;15.50;13.80;;;;;;;6.33;100.00;99761.25;5068346;28;20255;-78
2023/04/08 08:41:53;;;;;;;15.03;12.03;;;;;;;6.32;100.00;99763.00;5066200;28;20647;-79
2023/04/08 08:44:21;;;;;;;16.47;12.27;;;;;;;6.42;100.00;99762.69;5072717;28;20222;-78
2023/04/08 08:46:51;;;;;;;14.10;11.40;;;;;;;6.34;100.00;99756.84;5066365;28;20192;-78
2023/04/08 08:49:20;;;;;;;16.03;11.27;;;;;;;6.50;100.00;99761.47;5071189;28;20231;-79
2023/04/08 08:51:50;;;;;;;18.80;12.70;;;;;;;6.44;100.00;99769.59;5069383;28;20265;-78
2023/04/08 08:54:20;;;;;;;15.63;11.67;;;;;;;6.42;100.00;99768.78;5068163;28;20193;-78
2023/04/08 08:56:51;;;;;;;13.43;11.00;;;;;;;6.78;100.00;99770.97;5072444;28;20272;-78
2023/04/08 08:59:20;;;;;;;14.17;11.33;;;;;;;6.99;100.00;99764.00;5072730;28;20252;-78
2023/04/08 09:01:48;;;;;;;13.83;11.37;;;;;;;7.05;100.00;99767.25;5062945;28;20262;-79
2023/04/08 09:04:21;;;;;;;12.13;10.33;;;;;;;7.10;100.00;99757.38;5064936;28;20671;-79
2023/04/08 09:07:04;;;;;;;12.53;10.03;;;;;;;7.02;100.00;99764.72;5069285;28;20238;-78
2023/04/08 09:09:48;;;;;;;13.13;10.03;;;;;;;7.13;100.00;99764.28;5072537;28;20224;-78
2023/04/08 09:12:19;;;;;;;13.30;10.80;;;;;;;7.31;100.00;99760.91;5072252;28;20195;-79
2023/04/08 09:14:48;;;;;;;13.40;11.03;;;;;;;7.44;100.00;99759.50;5069962;28;20240;-79
2023/04/08 09:17:16;;;;;;;13.13;9.57;;;;;;;7.37;100.00;99758.03;5072563;28;20208;-79
2023/04/08 09:20:13;;;;;;;13.17;10.53;;;;;;;7.55;100.00;99756.41;5063223;28;20330;-79
2023/04/08 09:22:59;;;;;;;11.43;9.73;;;;;;;7.75;100.00;99764.34;5072186;28;20200;-79
2023/04/08 09:25:29;;;;;;;11.60;9.47;;;;;;;7.50;100.00;99760.16;5063434;28;20196;-79
2023/04/08 09:27:58;;;;;;;11.27;9.80;;;;;;;7.87;100.00;99762.94;5068612;28;20257;-79
2023/04/08 09:30:27;;;;;;;11.70;9.77;;;;;;;7.51;100.00;99760.06;5062201;28;20224;-79
2023/04/08 09:32:57;;;;;;;12.63;10.03;;;;;;;7.86;100.00;99763.88;5068309;28;20197;-79
2023/04/08 09:35:27;;;;;;;11.13;9.93;;;;;;;7.97;100.00;99761.63;5067988;28;20265;-79
2023/04/08 09:37:57;;;;;;;14.13;9.67;;;;;;;8.14;100.00;99765.31;5072047;28;20192;-79
2023/04/08 09:40:27;;;;;;;12.63;10.13;;;;;;;8.16;100.00;99766.09;5066499;28;20200;-79
2023/04/08 09:42:57;;;;;;;11.97;10.07;;;;;;;8.07;100.00;99756.78;5069188;28;20223;-79
2023/04/08 09:45:26;;;;;;;11.03;8.97;;;;;;;8.22;100.00;99765.81;5060873;28;20238;-80
2023/04/08 09:47:58;;;;;;;13.83;10.30;;;;;;;8.31;100.00;99768.91;5071122;28;20193;-79
2023/04/08 09:50:36;;;;;;;13.63;10.23;;;;;;;7.95;100.00;99760.84;5069824;28;20220;-79
2023/04/08 09:53:14;;;;;;;14.57;10.50;;;;;;;8.10;100.00;99761.94;5070458;28;20200;-80
2023/04/08 09:55:47;;;;;;;13.07;9.87;;;;;;;7.97;100.00;99764.25;5075769;28;20214;-80
2023/04/08 09:58:18;;;;;;;12.90;9.47;;;;;;;8.10;100.00;99754.00;5075800;28;20200;-79
2023/04/08 10:00:50;;;;;;;12.90;10.20;;;;;;;8.29;100.00;99756.69;5071912;28;20188;-79
2023/04/08 10:03:29;;;;;;;12.33;9.87;;;;;;;8.15;100.00;99748.53;5073867;28;20228;-79
2023/04/08 10:06:02;;;;;;;14.07;10.17;;;;;;;8.05;100.00;99753.38;5071107;28;20200;-79
2023/04/08 10:08:31;;;;;;;12.47;9.60;;;;;;;8.19;100.00;99747.47;5070723;28;20666;-79
2023/04/08 10:11:01;;;;;;;13.77;10.63;;;;;;;8.28;100.00;99747.06;5072644;28;20216;-79
2023/04/08 10:13:30;;;;;;;13.93;10.30;;;;;;;8.25;100.00;99739.28;5065634;28;20204;-79
2023/04/08 10:16:23;;;;;;;15.10;9.77;;;;;;;8.41;100.00;99739.50;5068866;28;20196;-80
2023/04/08 10:18:54;;;;;;;14.37;10.20;;;;;;;8.64;100.00;99736.63;5069999;28;20235;-80
2023/04/08 10:21:35;;;;;;;14.27;10.50;;;;;;;8.67;100.00;99744.41;5068680;28;20200;-79
2023/04/08 10:24:07;;;;;;;13.50;9.90;;;;;;;8.87;100.00;99740.81;5072360;28;20192;-79
2023/04/08 10:26:39;;;;;;;13.37;10.50;;;;;;;9.05;100.00;99745.22;4990766;28;20207;-79
2023/04/08 10:29:32;;;;;;;12.70;10.07;;;;;;;9.05;100.00;99745.22;4991157;28;20203;-79
2023/04/08 10:32:01;;;;;;;13.47;9.77;;;;;;;9.13;100.00;99743.06;4989243;28;20223;-80
2023/04/08 10:34:30;;;;;;;12.17;9.87;;;;;;;9.38;100.00;99742.72;4994645;28;20274;-80
2023/04/08 10:37:00;;;;;;;13.43;9.77;;;;;;;9.40;100.00;99738.22;4974661;28;20262;-80
2023/04/08 10:39:31;;;;;;;12.60;9.33;;;;;;;9.27;100.00;99733.63;4968304;28;20218;-79
2023/04/08 10:42:04;;;;;;;11.47;9.37;;;;;;;9.24;100.00;99731.13;4969113;28;20251;-79
2023/04/08 10:44:33;;;;;;;14.17;9.90;;;;;;;9.34;100.00;99724.44;4997596;28;20262;-80
2023/04/08 10:47:01;;;;;;;12.40;10.07;;;;;;;9.08;100.00;99729.25;5027746;28;20205;-80
2023/04/08 10:49:34;;;;;;;12.83;9.80;;;;;;;9.23;100.00;99732.91;5023573;28;20321;-79
2023/04/08 10:52:09;;;;;;;12.57;9.87;;;;;;;9.31;100.00;99737.81;5028867;28;20576;-79
2023/04/08 10:54:39;;;;;;;13.00;9.47;;;;;;;9.38;100.00;99736.59;5040543;28;20199;-79
2023/04/08 10:57:07;;;;;;;11.67;9.20;;;;;;;9.40;100.00;99737.34;5056392;28;20250;-79
2023/04/08 10:59:36;;;;;;;13.53;10.33;;;;;;;9.56;100.00;99733.03;5072127;28;20204;-79
2023/04/08 11:02:04;;;;;;;12.30;10.17;;;;;;;9.47;100.00;99733.47;5073748;28;20258;-80
2023/04/08 11:04:33;;;;;;;13.50;9.90;;;;;;;9.28;100.00;99749.41;5073201;28;20188;-79
2023/04/08 11:07:06;;;;;;;11.97;9.90;;;;;;;9.52;100.00;99747.31;5074229;28;20252;-79
2023/04/08 11:09:39;;;;;;;12.13;9.63;;;;;;;9.46;100.00;99739.72;5070745;28;20200;-80
2023/04/08 11:12:08;;;;;;;14.13;10.33;;;;;;;9.51;100.00;99740.31;5064537;28;20767;-80
2023/04/08 11:14:37;;;;;;;12.47;9.83;;;;;;;9.44;100.00;99739.75;5074597;28;20197;-79
2023/04/08 11:17:07;;;;;;;13.87;10.93;;;;;;;9.29;100.00;99739.69;5074576;28;20196;-79
2023/04/08 11:19:36;;;;;;;14.00;11.10;;;;;;;9.50;100.00;99733.31;5070211;28;20713;-79
2023/04/08 11:22:08;;;;;;;14.97;11.20;;;;;;;9.56;100.00;99737.47;5064256;28;20224;-79
2023/04/08 11:24:39;;;;;;;12.63;10.90;;;;;;;9.60;100.00;99737.22;5071894;28;20196;-80
2023/04/08 11:27:08;;;;;;;13.73;11.20;;;;;;;9.45;100.00;99745.91;5062375;28;20204;-79
2023/04/08 11:29:37;;;;;;;13.50;10.87;;;;;;;9.52;100.00;99754.41;5067413;28;20203;-79
2023/04/08 11:32:05;;;;;;;13.20;11.20;;;;;;;9.54;100.00;99747.22;5073973;28;20266;-79
2023/04/08 11:34:33;;;;;;;15.30;11.60;;;;;;;9.50;100.00;99745.69;5068523;28;20189;-79
2023/04/08 11:37:02;;;;;;;14.20;11.80;;;;;;;9.67;100.00;99753.63;5071047;28;20204;-80